createdAt,value
2022-08-04T00:01:00.292Z,100683.13
2022-08-04T00:03:33.816Z,100671.97
2022-08-04T00:06:04.833Z,100674.94
2022-08-04T00:08:41.202Z,100673.66
2022-08-04T00:11:15.630Z,100672.13
2022-08-04T00:13:52.707Z,100670.44
2022-08-04T00:16:37.579Z,100679.09
2022-08-04T00:19:07.150Z,100682.63
2022-08-04T00:21:37.891Z,100678.91
2022-08-04T00:24:10.762Z,100678.63
2022-08-04T00:26:40.994Z,100678.97
2022-08-04T00:29:08.731Z,100672.91
2022-08-04T00:31:57.162Z,100679.81
2022-08-04T00:34:26.659Z,100676.78
2022-08-04T00:36:55.397Z,100661.16
2022-08-04T00:39:24.567Z,100663.00
2022-08-04T00:42:15.170Z,100665.09
2022-08-04T00:44:53.084Z,100677.94
2022-08-04T00:47:34.372Z,100661.19
2022-08-04T00:50:07.508Z,100661.66
2022-08-04T00:52:43.283Z,100659.56
2022-08-04T00:55:32.783Z,100653.44
2022-08-04T00:58:13.998Z,100651.66
2022-08-04T01:00:45.671Z,100650.81
2022-08-04T01:03:19.215Z,100646.56
2022-08-04T01:05:57.110Z,100649.13
2022-08-04T01:08:37.435Z,100644.91
2022-08-04T01:11:14.777Z,100641.00
2022-08-04T01:14:00.016Z,100638.41
2022-08-04T01:16:28.503Z,100623.06
2022-08-04T01:19:01.207Z,100620.38
2022-08-04T01:22:03.154Z,100621.66
2022-08-04T01:24:46.545Z,100620.81
2022-08-04T01:27:29.264Z,100624.53
2022-08-04T01:30:01.209Z,100620.88
2022-08-04T01:32:34.008Z,100611.66
2022-08-04T01:35:07.406Z,100607.00
2022-08-04T01:37:50.413Z,100612.22
2022-08-04T01:40:18.432Z,100611.66
2022-08-04T01:42:46.504Z,100611.13
2022-08-04T01:45:16.000Z,100613.03
2022-08-04T01:47:50.139Z,100607.41
2022-08-04T01:50:17.854Z,100609.13
2022-08-04T01:52:50.921Z,100609.28
2022-08-04T01:55:19.338Z,100603.63
2022-08-04T01:57:48.851Z,100598.69
2022-08-04T02:00:19.623Z,100591.94
2022-08-04T02:02:47.813Z,100592.81
2022-08-04T02:05:18.074Z,100603.81
2022-08-04T02:07:55.231Z,100595.66
2022-08-04T02:10:29.155Z,100595.75
2022-08-04T02:13:10.339Z,100594.22
2022-08-04T02:15:44.826Z,100589.25
2022-08-04T02:18:17.487Z,100591.44
2022-08-04T02:20:47.390Z,100586.63
2022-08-04T02:23:16.482Z,100586.38
2022-08-04T02:25:47.676Z,100583.31
2022-08-04T02:28:24.098Z,100577.50
2022-08-04T02:31:00.001Z,100574.16
2022-08-04T02:33:32.885Z,100583.72
2022-08-04T02:36:02.617Z,100575.38
2022-08-04T02:38:41.607Z,100572.84
2022-08-04T02:41:10.715Z,100565.97
2022-08-04T02:43:52.131Z,100572.47
2022-08-04T02:46:22.941Z,100571.63
2022-08-04T02:48:51.728Z,100570.88
2022-08-04T02:51:23.845Z,100560.19
2022-08-04T02:53:54.559Z,100569.66
2022-08-04T02:56:23.180Z,100566.97
2022-08-04T02:58:54.076Z,100561.19
2022-08-04T03:01:24.906Z,100557.41
2022-08-04T03:04:01.162Z,100559.00
2022-08-04T03:07:04.084Z,100562.22
2022-08-04T03:09:52.547Z,100550.91
2022-08-04T03:12:35.191Z,100549.53
2022-08-04T03:15:27.459Z,100550.66
2022-08-04T03:18:16.127Z,100548.16
2022-08-04T03:21:14.038Z,100548.59
2022-08-04T03:24:01.780Z,100543.09
2022-08-04T03:26:55.124Z,100547.31
2022-08-04T03:30:02.416Z,100539.44
2022-08-04T03:33:09.064Z,100532.53
2022-08-04T03:36:31.906Z,100538.28
2022-08-04T03:39:48.659Z,100531.56
2022-08-04T03:42:48.997Z,100530.97
2022-08-04T03:45:50.035Z,100536.59
2022-08-04T03:48:50.286Z,100533.09
2022-08-04T03:51:46.450Z,100534.06
2022-08-04T03:54:35.922Z,100531.41
2022-08-04T03:57:38.853Z,100533.22
2022-08-04T04:00:09.992Z,100529.03
2022-08-04T04:02:59.979Z,100526.66
2022-08-04T04:06:17.995Z,100528.59
2022-08-04T04:09:16.210Z,100528.88
2022-08-04T04:12:21.703Z,100520.66
2022-08-04T04:15:10.157Z,100517.00
2022-08-04T04:18:03.061Z,100514.31
2022-08-04T04:20:59.009Z,100517.13
2022-08-04T04:23:45.444Z,100506.28
2022-08-04T04:26:33.892Z,100517.22
2022-08-04T04:29:19.954Z,100516.47
2022-08-04T04:31:58.551Z,100513.03
2022-08-04T04:34:36.782Z,100515.25
2022-08-04T04:37:16.568Z,100513.81
2022-08-04T04:39:55.210Z,100510.25
2022-08-04T04:42:37.760Z,100507.81
2022-08-04T04:45:14.012Z,100505.06
2022-08-04T04:48:08.711Z,100513.53
2022-08-04T04:50:46.287Z,100506.03
2022-08-04T04:53:29.995Z,100507.72
2022-08-04T04:56:03.370Z,100503.44
2022-08-04T04:58:33.103Z,100492.13
2022-08-04T05:01:17.107Z,100508.63
2022-08-04T05:04:06.608Z,100505.69
2022-08-04T05:06:46.548Z,100497.88
2022-08-04T05:09:43.624Z,100505.34
2022-08-04T05:14:32.367Z,100502.41
2022-08-04T05:15:25.171Z,100504.09
2022-08-04T05:17:55.236Z,100506.72
2022-08-04T05:20:26.880Z,100501.34
2022-08-04T05:22:56.883Z,100503.94
2022-08-04T05:25:27.107Z,100496.28
2022-08-04T05:27:58.926Z,100506.44
2022-08-04T05:30:28.555Z,100494.81
2022-08-04T05:33:00.814Z,100500.22
2022-08-04T05:35:55.849Z,100497.84
2022-08-04T05:38:23.608Z,100493.47
2022-08-04T05:40:52.467Z,100497.09
2022-08-04T05:43:23.546Z,100490.72
2022-08-04T05:45:52.290Z,100491.75
2022-08-04T05:48:20.179Z,100486.31
2022-08-04T05:50:49.463Z,100490.81
2022-08-04T05:53:18.345Z,100488.00
2022-08-04T05:55:48.865Z,100482.31
2022-08-04T05:58:28.816Z,100482.97
2022-08-04T06:00:56.834Z,100484.63
2022-08-04T06:03:25.094Z,100485.91
2022-08-04T06:05:55.275Z,100482.88
2022-08-04T06:08:24.133Z,100477.66
2022-08-04T06:10:52.592Z,100480.09
2022-08-04T06:13:46.635Z,100485.81
2022-08-04T06:16:17.794Z,100472.56
2022-08-04T06:19:59.590Z,100477.03
2022-08-04T06:21:36.417Z,100476.31
2022-08-04T06:24:06.036Z,100474.13
2022-08-04T06:26:35.007Z,100475.94
2022-08-04T06:29:04.754Z,100466.84
2022-08-04T06:32:27.478Z,100473.09
2022-08-04T06:34:32.115Z,100471.41
2022-08-04T06:37:01.571Z,100478.81
2022-08-04T06:39:30.473Z,100497.44
2022-08-04T06:42:19.993Z,100502.44
2022-08-04T06:44:45.848Z,100507.72
2022-08-04T06:47:14.207Z,100506.13
2022-08-04T06:49:55.170Z,100521.31
2022-08-04T06:52:32.249Z,100511.16
2022-08-04T06:55:00.341Z,100515.38
2022-08-04T06:57:29.356Z,100515.91
2022-08-04T06:59:59.536Z,100511.91
2022-08-04T07:02:30.099Z,100506.47
2022-08-04T07:04:58.093Z,100506.25
2022-08-04T07:07:33.907Z,100507.50
2022-08-04T07:10:07.779Z,100513.94
2022-08-04T07:12:35.927Z,100514.88
2022-08-04T07:15:04.923Z,100513.41
2022-08-04T07:17:34.634Z,100507.50
2022-08-04T07:20:03.072Z,100509.94
2022-08-04T07:22:30.924Z,100506.31
2022-08-04T07:24:59.764Z,100505.19
2022-08-04T07:27:48.167Z,100499.16
2022-08-04T07:30:20.664Z,100517.59
2022-08-04T07:32:52.619Z,100516.38
2022-08-04T07:36:09.878Z,100514.25
2022-08-04T07:38:11.203Z,100522.00
2022-08-04T07:40:39.529Z,100526.75
2022-08-04T07:43:09.734Z,100525.13
2022-08-04T07:45:37.564Z,100524.31
2022-08-04T07:48:07.177Z,100524.97
2022-08-04T07:50:35.163Z,100524.00
2022-08-04T07:53:54.442Z,100524.84
2022-08-04T07:55:50.901Z,100521.63
2022-08-04T07:58:20.136Z,100516.09
2022-08-04T08:00:48.508Z,100517.59
2022-08-04T08:03:17.166Z,100515.09
2022-08-04T08:06:18.237Z,100519.72
2022-08-04T08:08:38.981Z,100523.56
2022-08-04T08:11:06.724Z,100520.38
2022-08-04T08:13:35.905Z,100518.16
2022-08-04T08:16:03.732Z,100521.75
2022-08-04T08:18:31.600Z,100519.19
2022-08-04T08:20:59.531Z,100521.78
2022-08-04T08:23:27.446Z,100513.78
2022-08-04T08:25:55.170Z,100514.63
2022-08-04T08:28:22.902Z,100510.38
2022-08-04T08:30:52.859Z,100510.53
2022-08-04T08:33:21.697Z,100506.50
2022-08-04T08:35:54.900Z,100504.63
2022-08-04T08:38:30.239Z,100518.84
2022-08-04T08:41:15.490Z,100522.09
2022-08-04T08:44:05.699Z,100518.56
2022-08-04T08:46:50.113Z,100524.72
2022-08-04T08:50:00.621Z,100520.38
2022-08-04T08:53:01.614Z,100510.09
2022-08-04T08:55:39.708Z,100511.84
2022-08-04T08:58:22.257Z,100515.19
2022-08-04T09:00:57.192Z,100522.25
2022-08-04T09:03:43.430Z,100513.09
2022-08-04T09:06:24.951Z,100511.66
2022-08-04T09:09:23.278Z,100514.25
2022-08-04T09:11:57.261Z,100517.34
2022-08-04T09:14:30.246Z,100507.03
2022-08-04T09:17:02.758Z,100518.72
2022-08-04T09:19:37.368Z,100524.69
2022-08-04T09:22:13.021Z,100528.56
2022-08-04T09:24:49.525Z,100519.81
2022-08-04T09:27:20.481Z,100524.56
2022-08-04T09:29:53.537Z,100531.41
2022-08-04T09:32:28.204Z,100518.03
2022-08-04T09:35:08.600Z,100517.00
2022-08-04T09:37:46.070Z,100510.44
2022-08-04T09:40:31.425Z,100507.78
2022-08-04T09:43:19.779Z,100503.00
2022-08-04T09:45:53.584Z,100510.31
2022-08-04T09:48:28.479Z,100498.28
2022-08-04T09:51:00.219Z,100498.50
2022-08-04T09:53:47.888Z,100501.16
2022-08-04T09:56:23.479Z,100504.72
2022-08-04T09:58:55.191Z,100513.25
2022-08-04T10:01:24.503Z,100514.69
2022-08-04T10:03:55.805Z,100510.94
2022-08-04T10:06:37.703Z,100517.72
2022-08-04T10:09:15.135Z,100516.84
2022-08-04T10:11:56.698Z,100510.16
2022-08-04T10:14:47.442Z,100502.69
2022-08-04T10:17:49.142Z,100518.94
2022-08-04T10:20:44.494Z,100517.19
2022-08-04T10:23:21.852Z,100504.94
2022-08-04T10:26:07.206Z,100507.47
2022-08-04T10:28:41.844Z,100508.84
2022-08-04T10:31:11.310Z,100504.13
2022-08-04T10:33:43.868Z,100511.91
2022-08-04T10:36:14.180Z,100509.97
2022-08-04T10:38:51.408Z,100512.63
2022-08-04T10:41:24.917Z,100512.25
2022-08-04T10:44:09.543Z,100505.41
2022-08-04T10:46:38.932Z,100505.50
2022-08-04T10:49:15.067Z,100509.66
2022-08-04T10:51:57.431Z,100516.13
2022-08-04T10:54:33.281Z,100511.84
2022-08-04T10:57:06.644Z,100514.13
2022-08-04T10:59:38.932Z,100524.78
2022-08-04T11:02:18.195Z,100512.81
2022-08-04T11:04:48.981Z,100510.34
2022-08-04T11:07:17.869Z,100508.06
2022-08-04T11:09:47.015Z,100511.38
2022-08-04T11:12:18.925Z,100515.31
2022-08-04T11:14:52.797Z,100522.53
2022-08-04T11:17:22.680Z,100528.41
2022-08-04T11:20:18.304Z,100513.72
2022-08-04T11:22:51.371Z,100522.50
2022-08-04T11:25:22.247Z,100510.81
2022-08-04T11:27:56.666Z,100514.53
2022-08-04T11:30:26.508Z,100523.91
2022-08-04T11:33:01.691Z,100532.72
2022-08-04T11:35:33.067Z,100529.91
2022-08-04T11:38:07.896Z,100541.28
2022-08-04T11:40:41.240Z,100552.38
2022-08-04T11:43:56.656Z,100543.16
2022-08-04T11:46:25.359Z,100549.44
2022-08-04T11:48:57.712Z,100563.94
2022-08-04T11:51:28.166Z,100580.38
2022-08-04T11:53:57.062Z,100595.31
2022-08-04T11:56:35.749Z,100607.91
2022-08-04T11:59:04.201Z,100636.25
2022-08-04T12:01:39.849Z,100674.72
2022-08-04T12:04:15.046Z,100724.56
2022-08-04T12:06:56.905Z,100752.59
2022-08-04T12:09:37.743Z,100770.25
2022-08-04T12:12:22.158Z,100782.63
2022-08-04T12:14:55.097Z,100796.63
2022-08-04T12:17:26.719Z,100806.91
2022-08-04T12:20:31.451Z,100791.28
2022-08-04T12:22:55.979Z,100773.91
2022-08-04T12:25:29.262Z,100785.16
2022-08-04T12:28:02.077Z,100787.94
2022-08-04T12:30:58.874Z,100796.91
2022-08-04T12:34:03.459Z,100791.16
2022-08-04T12:36:22.338Z,100777.69
2022-08-04T12:38:53.899Z,100777.81
2022-08-04T12:41:25.735Z,100777.53
2022-08-04T12:43:55.690Z,100761.69
2022-08-04T12:46:25.137Z,100747.16
2022-08-04T12:48:53.175Z,100730.94
2022-08-04T12:51:31.110Z,100719.09
2022-08-04T12:54:12.147Z,100706.53
2022-08-04T12:56:40.757Z,100702.78
2022-08-04T12:59:13.030Z,100690.31
2022-08-04T13:02:09.879Z,100677.38
2022-08-04T13:04:30.219Z,100660.56
2022-08-04T13:06:59.884Z,100660.91
2022-08-04T13:09:30.338Z,100657.78
2022-08-04T13:12:02.002Z,100651.31
2022-08-04T13:14:34.753Z,100643.66
2022-08-04T13:17:04.147Z,100629.16
2022-08-04T13:19:41.429Z,100634.91
2022-08-04T13:22:09.894Z,100656.19
2022-08-04T13:25:17.923Z,100659.56
2022-08-04T13:27:28.231Z,100653.50
2022-08-04T13:30:18.582Z,100661.25
2022-08-04T13:32:54.877Z,100651.47
2022-08-04T13:35:24.334Z,100649.66
2022-08-04T13:38:12.706Z,100638.16
2022-08-04T13:40:41.887Z,100634.44
2022-08-04T13:44:16.367Z,100632.72
2022-08-04T13:46:04.356Z,100633.13
2022-08-04T13:48:34.241Z,100631.03
2022-08-04T13:51:05.043Z,100625.63
2022-08-04T13:53:34.302Z,100613.41
2022-08-04T13:56:02.903Z,100610.44
2022-08-04T13:58:35.654Z,100614.53
2022-08-04T14:01:11.341Z,100631.03
2022-08-04T14:03:54.369Z,100626.59
2022-08-04T14:06:25.259Z,100627.19
2022-08-04T14:08:55.668Z,100625.06
2022-08-04T14:12:10.731Z,100632.63
2022-08-04T14:14:25.600Z,100640.19
2022-08-04T14:17:02.445Z,100640.97
2022-08-04T14:19:36.510Z,100627.50
2022-08-04T14:22:04.497Z,100640.50
2022-08-04T14:24:32.041Z,100642.41
2022-08-04T14:27:00.856Z,100643.59
2022-08-04T14:29:37.560Z,100637.50
2022-08-04T14:32:13.006Z,100633.53
2022-08-04T14:34:44.754Z,100619.91
2022-08-04T14:37:18.416Z,100623.41
2022-08-04T14:40:18.471Z,100623.06
2022-08-04T14:42:43.879Z,100622.97
2022-08-04T14:45:12.075Z,100628.25
2022-08-04T14:47:52.386Z,100623.78
2022-08-04T14:50:21.330Z,100624.34
2022-08-04T14:52:49.345Z,100620.31
2022-08-04T14:55:18.903Z,100619.84
2022-08-04T14:58:37.947Z,100630.47
2022-08-04T15:00:35.991Z,100629.75
2022-08-04T15:03:06.831Z,100631.06
2022-08-04T15:06:00.289Z,100635.03
2022-08-04T15:08:22.191Z,100627.09
2022-08-04T15:10:52.772Z,100628.06
2022-08-04T15:13:20.381Z,100636.25
2022-08-04T15:16:02.211Z,100643.09
2022-08-04T15:18:37.430Z,100645.63
2022-08-04T15:21:05.377Z,100649.03
2022-08-04T15:23:39.577Z,100655.28
2022-08-04T15:26:10.457Z,100645.44
2022-08-04T15:28:39.786Z,100640.91
2022-08-04T15:31:10.610Z,100640.75
2022-08-04T15:33:57.733Z,100631.53
2022-08-04T15:36:34.073Z,100642.72
2022-08-04T15:39:09.767Z,100639.94
2022-08-04T15:41:53.803Z,100635.84
2022-08-04T15:44:40.464Z,100645.22
2022-08-04T15:47:14.101Z,100647.69
2022-08-04T15:49:43.712Z,100641.38
2022-08-04T15:52:15.656Z,100646.03
2022-08-04T15:54:52.384Z,100639.66
2022-08-04T15:57:58.268Z,100644.56
2022-08-04T16:00:25.899Z,100641.75
2022-08-04T16:02:53.563Z,100647.25
2022-08-04T16:05:36.878Z,100648.03
2022-08-04T16:08:15.275Z,100652.56
2022-08-04T16:10:44.873Z,100648.41
2022-08-04T16:13:14.825Z,100657.97
2022-08-04T16:15:50.292Z,100658.53
2022-08-04T16:18:26.492Z,100663.88
2022-08-04T16:20:59.296Z,100657.38
2022-08-04T16:24:00.640Z,100658.44
2022-08-04T16:26:58.686Z,100656.19
2022-08-04T16:29:44.273Z,100646.91
2022-08-04T16:32:18.044Z,100664.22
2022-08-04T16:34:54.825Z,100653.13
2022-08-04T16:37:31.206Z,100659.63
2022-08-04T16:40:37.234Z,100665.97
2022-08-04T16:43:09.161Z,100665.78
2022-08-04T16:45:52.497Z,100664.53
2022-08-04T16:48:21.078Z,100662.06
2022-08-04T16:50:55.455Z,100667.56
2022-08-04T16:54:04.072Z,100666.09
2022-08-04T16:56:15.319Z,100673.56
2022-08-04T16:58:53.147Z,100667.84
2022-08-04T17:01:32.575Z,100659.19
2022-08-04T17:04:06.109Z,100660.03
2022-08-04T17:06:35.835Z,100665.88
2022-08-04T17:09:11.451Z,100670.38
2022-08-04T17:11:39.327Z,100666.50
2022-08-04T17:14:07.032Z,100669.88
2022-08-04T17:16:36.332Z,100661.94
2022-08-04T17:19:04.782Z,100661.09
2022-08-04T17:21:34.428Z,100667.72
2022-08-04T17:24:14.987Z,100663.56
2022-08-04T17:29:42.794Z,100676.63
2022-08-04T17:32:15.043Z,100681.44
2022-08-04T17:34:44.603Z,100675.38
2022-08-04T17:40:09.910Z,100688.09
2022-08-04T17:42:40.375Z,100684.44
2022-08-04T17:47:59.695Z,100697.88
2022-08-04T17:50:27.652Z,100696.25
2022-08-04T17:53:02.107Z,100703.81
2022-08-04T17:55:43.176Z,100700.28
2022-08-04T17:58:21.165Z,100709.34
2022-08-04T18:00:52.017Z,100696.22
2022-08-04T18:03:30.123Z,100699.44
2022-08-04T18:06:03.366Z,100710.66
2022-08-04T18:08:41.355Z,100704.59
2022-08-04T18:11:22.042Z,100706.94
2022-08-04T18:13:57.136Z,100710.81
2022-08-04T18:16:25.340Z,100710.31
2022-08-04T18:19:11.141Z,100706.28
2022-08-04T18:21:46.524Z,100708.81
2022-08-04T18:24:34.175Z,100706.28
2022-08-04T18:27:20.451Z,100711.81
2022-08-04T18:29:56.422Z,100708.28
2022-08-04T18:32:37.063Z,100716.69
2022-08-04T18:35:19.288Z,100719.44
2022-08-04T18:40:53.460Z,100723.03
2022-08-04T18:43:28.665Z,100731.00
2022-08-04T18:45:59.795Z,100726.31
2022-08-04T18:48:35.912Z,100732.31
2022-08-04T18:51:09.941Z,100729.91
2022-08-04T18:53:54.951Z,100739.22
2022-08-04T18:56:29.873Z,100740.53
2022-08-04T18:59:01.247Z,100751.44
2022-08-04T19:02:13.399Z,100757.44
2022-08-04T19:04:32.967Z,100753.94
2022-08-04T19:07:24.707Z,100763.50
2022-08-04T19:09:52.004Z,100762.75
2022-08-04T19:12:26.906Z,100765.56
2022-08-04T19:14:58.378Z,100769.69
2022-08-04T19:20:25.893Z,100773.06
2022-08-04T19:24:28.812Z,100763.19
2022-08-04T19:25:58.820Z,100773.44
2022-08-04T19:28:34.183Z,100772.03
2022-08-04T19:31:03.365Z,100776.72
2022-08-04T19:33:58.730Z,100784.47
2022-08-04T19:36:20.664Z,100781.53
2022-08-04T19:38:56.155Z,100785.53
2022-08-04T19:41:23.961Z,100793.72
2022-08-04T19:43:54.609Z,100790.47
2022-08-04T19:46:24.813Z,100800.09
2022-08-04T19:48:59.400Z,100801.47
2022-08-04T19:51:29.810Z,100797.53
2022-08-04T19:54:02.963Z,100800.91
2022-08-04T19:56:40.930Z,100803.34
2022-08-04T19:59:09.576Z,100801.38
2022-08-04T20:01:44.390Z,100807.03
2022-08-04T20:04:14.231Z,100800.25
2022-08-04T20:06:42.406Z,100809.97
2022-08-04T20:09:24.964Z,100808.88
2022-08-04T20:11:54.858Z,100808.03
2022-08-04T20:14:31.221Z,100812.09
2022-08-04T20:17:00.660Z,100813.38
2022-08-04T20:19:30.389Z,100822.09
2022-08-04T20:21:58.291Z,100823.59
2022-08-04T20:24:38.832Z,100833.34
2022-08-04T20:27:15.620Z,100825.00
2022-08-04T20:29:50.952Z,100821.19
2022-08-04T20:32:20.194Z,100823.44
2022-08-04T20:34:51.963Z,100811.91
2022-08-04T20:37:20.713Z,100817.41
2022-08-04T20:39:54.384Z,100823.44
2022-08-04T20:42:27.049Z,100822.31
2022-08-04T20:44:56.197Z,100821.47
2022-08-04T20:47:26.071Z,100833.13
2022-08-04T20:49:55.859Z,100830.03
2022-08-04T20:52:23.480Z,100835.25
2022-08-04T20:54:56.158Z,100848.03
2022-08-04T20:57:49.838Z,100847.59
2022-08-04T21:00:13.134Z,100854.22
2022-08-04T21:02:41.456Z,100851.56
2022-08-04T21:05:11.067Z,100851.53
2022-08-04T21:07:43.820Z,100858.28
2022-08-04T21:10:17.044Z,100855.22
2022-08-04T21:12:49.871Z,100862.53
2022-08-04T21:15:24.843Z,100861.94
2022-08-04T21:17:58.112Z,100857.44
2022-08-04T21:20:33.620Z,100857.88
2022-08-04T21:23:03.632Z,100861.94
2022-08-04T21:25:32.799Z,100851.66
2022-08-04T21:28:10.871Z,100850.94
2022-08-04T21:30:54.171Z,100863.59
2022-08-04T21:33:24.467Z,100865.69
2022-08-04T21:36:12.995Z,100871.38
2022-08-04T21:38:41.801Z,100870.03
2022-08-04T21:41:20.415Z,100871.63
2022-08-04T21:43:52.925Z,100856.84
2022-08-04T21:46:20.950Z,100873.88
2022-08-04T21:48:49.469Z,100885.63
2022-08-04T21:51:56.815Z,100889.78
2022-08-04T21:54:09.073Z,100885.50
2022-08-04T21:56:38.068Z,100884.09
2022-08-04T21:59:11.429Z,100888.84
2022-08-04T22:01:52.470Z,100902.13
2022-08-04T22:04:22.679Z,100906.59
2022-08-04T22:06:52.763Z,100901.00
2022-08-04T22:09:21.620Z,100896.72
2022-08-04T22:11:50.722Z,100894.50
2022-08-04T22:14:21.765Z,100902.38
2022-08-04T22:16:57.703Z,100928.50
2022-08-04T22:19:49.779Z,100925.28
2022-08-04T22:22:25.946Z,100903.69
2022-08-04T22:24:54.649Z,100920.75
2022-08-04T22:27:36.227Z,100928.75
2022-08-04T22:30:13.353Z,100947.31
2022-08-04T22:32:46.255Z,100954.47
2022-08-04T22:35:35.577Z,100964.88
2022-08-04T22:38:06.618Z,100970.25
2022-08-04T22:40:38.225Z,100971.69
2022-08-04T22:43:22.592Z,100970.34
2022-08-04T22:45:53.492Z,100966.84
2022-08-04T22:48:21.186Z,100959.34
2022-08-04T22:50:50.195Z,100959.75
2022-08-04T22:53:19.130Z,100947.25
2022-08-04T22:56:07.339Z,100950.00
2022-08-04T22:58:35.305Z,100968.59
2022-08-04T23:01:03.159Z,100970.41
2022-08-04T23:03:37.192Z,100975.84
2022-08-04T23:06:07.095Z,100972.41
2022-08-04T23:08:43.307Z,100969.31
2022-08-04T23:11:15.065Z,100954.47
2022-08-04T23:13:42.724Z,100950.50
2022-08-04T23:16:10.943Z,100946.22
2022-08-04T23:18:40.243Z,100919.13
2022-08-04T23:21:10.983Z,100913.56
2022-08-04T23:23:55.725Z,100882.78
2022-08-04T23:26:28.399Z,100835.50
2022-08-04T23:28:56.696Z,100804.53
2022-08-04T23:31:24.343Z,100781.81
2022-08-04T23:33:52.529Z,100787.06
2022-08-04T23:36:26.312Z,100792.22
2022-08-04T23:39:01.422Z,100805.44
2022-08-04T23:41:54.114Z,100845.53
2022-08-04T23:44:24.798Z,100881.00
2022-08-04T23:46:58.646Z,100905.56
2022-08-04T23:49:43.996Z,100897.03
2022-08-04T23:52:23.467Z,100902.22
2022-08-04T23:54:59.443Z,100926.13
2022-08-04T23:58:05.142Z,100911.94
